createdAt,value
2017-12-16T00:00:01.899Z,99.99
2017-12-16T00:01:02.271Z,99.99
2017-12-16T00:02:02.429Z,99.99
2017-12-16T00:03:02.574Z,99.99
2017-12-16T00:04:02.862Z,99.99
2017-12-16T00:05:02.041Z,99.99
2017-12-16T00:06:02.253Z,99.99
2017-12-16T00:07:03.178Z,99.99
2017-12-16T00:08:25.192Z,99.99
2017-12-16T00:09:25.420Z,99.99
2017-12-16T00:10:25.612Z,99.99
2017-12-16T00:11:25.975Z,99.99
2017-12-16T00:12:25.249Z,99.99
2017-12-16T00:13:25.539Z,99.99
2017-12-16T00:14:25.772Z,99.99
2017-12-16T00:15:26.014Z,99.99
2017-12-16T00:16:26.165Z,99.99
2017-12-16T00:17:25.589Z,99.99
2017-12-16T00:18:25.899Z,99.99
2017-12-16T00:19:25.323Z,99.99
2017-12-16T00:20:25.444Z,99.99
2017-12-16T00:21:26.149Z,99.99
2017-12-16T00:22:25.228Z,99.99
2017-12-16T00:23:25.613Z,99.99
2017-12-16T00:24:25.844Z,99.99
2017-12-16T00:25:25.997Z,99.99
2017-12-16T00:26:25.240Z,99.99
2017-12-16T00:27:25.516Z,99.99
2017-12-16T00:28:25.725Z,99.99
2017-12-16T00:29:25.976Z,99.99
2017-12-16T00:30:25.224Z,99.99
2017-12-16T00:31:25.519Z,99.99
2017-12-16T00:32:25.859Z,99.99
2017-12-16T00:33:25.969Z,99.99
2017-12-16T00:34:26.139Z,99.99
2017-12-16T00:35:26.318Z,99.99
2017-12-16T00:36:25.609Z,99.99
2017-12-16T00:37:25.693Z,99.99
2017-12-16T00:38:25.954Z,99.99
2017-12-16T00:39:26.091Z,99.99
2017-12-16T00:40:25.340Z,99.99
2017-12-16T00:41:25.616Z,99.99
2017-12-16T00:42:25.854Z,99.99
2017-12-16T00:43:26.127Z,99.99
2017-12-16T00:44:25.404Z,99.99
2017-12-16T00:45:25.734Z,99.99
2017-12-16T00:46:25.865Z,99.99
2017-12-16T00:47:26.039Z,99.99
2017-12-16T00:48:48.114Z,99.99
2017-12-16T00:49:48.602Z,99.99
2017-12-16T00:50:48.884Z,99.99
2017-12-16T00:51:48.953Z,99.99
2017-12-16T00:52:48.155Z,99.99
2017-12-16T00:53:48.460Z,99.99
2017-12-16T00:54:48.717Z,99.99
2017-12-16T00:55:48.784Z,99.99
2017-12-16T00:56:48.128Z,99.99
2017-12-16T00:57:48.290Z,99.99
2017-12-16T00:58:48.365Z,99.99
2017-12-16T00:59:48.500Z,99.99
2017-12-16T01:00:48.735Z,99.99
2017-12-16T01:02:13.264Z,99.99
2017-12-16T01:03:13.453Z,99.99
2017-12-16T01:04:13.617Z,99.99
2017-12-16T01:05:13.758Z,99.99
2017-12-16T01:06:13.938Z,99.99
2017-12-16T01:07:14.189Z,99.99
2017-12-16T01:08:13.562Z,99.99
2017-12-16T01:09:13.751Z,99.99
2017-12-16T01:10:13.881Z,99.99
2017-12-16T01:11:14.013Z,99.99
2017-12-16T01:12:14.177Z,99.99
2017-12-16T01:13:13.291Z,99.99
2017-12-16T01:14:13.499Z,99.99
2017-12-16T01:15:13.654Z,99.99
2017-12-16T01:16:13.849Z,99.99
2017-12-16T01:17:14.052Z,99.99
2017-12-16T01:18:14.155Z,99.99
2017-12-16T01:19:13.395Z,99.99
2017-12-16T01:20:14.128Z,99.99
2017-12-16T01:21:13.364Z,99.99
2017-12-16T01:22:13.547Z,99.99
2017-12-16T01:23:13.894Z,99.99
2017-12-16T01:24:14.153Z,99.99
2017-12-16T01:25:13.857Z,99.99
2017-12-16T01:26:37.185Z,99.99
2017-12-16T01:27:37.526Z,99.99
2017-12-16T01:28:37.628Z,99.99
2017-12-16T01:29:38.057Z,99.99
2017-12-16T01:30:37.374Z,99.99
2017-12-16T01:31:37.647Z,99.99
2017-12-16T01:32:37.909Z,99.99
2017-12-16T01:33:38.007Z,99.99
2017-12-16T01:34:37.320Z,99.99
2017-12-16T01:35:37.578Z,99.99
2017-12-16T01:36:37.819Z,99.99
2017-12-16T01:37:37.097Z,99.99
2017-12-16T01:38:37.252Z,99.99
2017-12-16T01:39:37.415Z,99.99
2017-12-16T01:40:37.791Z,99.99
2017-12-16T01:41:39.273Z,99.99
2017-12-16T01:42:37.404Z,99.99
2017-12-16T01:43:37.718Z,99.99
2017-12-16T01:44:37.844Z,99.99
2017-12-16T01:45:38.092Z,99.99
2017-12-16T01:46:37.209Z,99.99
2017-12-16T01:47:37.476Z,99.99
2017-12-16T01:48:37.540Z,99.99
2017-12-16T01:49:37.615Z,99.99
2017-12-16T01:50:38.480Z,99.99
2017-12-16T01:51:37.709Z,99.99
2017-12-16T01:52:37.976Z,99.99
2017-12-16T01:53:37.186Z,99.99
2017-12-16T01:55:00.118Z,99.99
2017-12-16T01:56:00.301Z,99.99
2017-12-16T01:57:00.571Z,99.99
2017-12-16T01:58:00.805Z,99.99
2017-12-16T01:59:00.938Z,99.99
2017-12-16T02:00:01.094Z,99.99
2017-12-16T02:01:00.351Z,99.99
2017-12-16T02:02:00.568Z,99.99
2017-12-16T02:03:00.732Z,99.99
2017-12-16T02:04:01.424Z,99.99
2017-12-16T02:05:00.587Z,99.99
2017-12-16T02:06:00.648Z,99.99
2017-12-16T02:07:00.850Z,99.99
2017-12-16T02:08:00.963Z,99.99
2017-12-16T02:09:01.025Z,99.99
2017-12-16T02:10:00.177Z,99.99
2017-12-16T02:11:00.325Z,99.99
2017-12-16T02:12:00.409Z,99.99
2017-12-16T02:13:00.654Z,99.99
2017-12-16T02:14:00.708Z,99.99
2017-12-16T02:15:00.882Z,99.99
2017-12-16T02:16:00.150Z,99.99
2017-12-16T02:17:00.365Z,99.99
2017-12-16T02:18:00.541Z,99.99
2017-12-16T02:19:00.779Z,99.99
2017-12-16T02:20:00.962Z,99.99
2017-12-16T02:21:00.998Z,99.99
2017-12-16T02:22:00.238Z,99.99
2017-12-16T02:23:00.376Z,99.99
2017-12-16T02:24:00.466Z,99.99
2017-12-16T02:25:00.467Z,99.99
2017-12-16T02:26:00.606Z,99.99
2017-12-16T02:27:00.776Z,99.99
2017-12-16T02:28:01.006Z,99.99
2017-12-16T02:29:00.044Z,99.99
2017-12-16T02:30:00.176Z,99.99
2017-12-16T02:31:00.149Z,99.99
2017-12-16T02:32:00.398Z,99.99
2017-12-16T02:33:00.786Z,99.99
2017-12-16T02:34:00.992Z,99.99
2017-12-16T02:35:00.158Z,99.99
2017-12-16T02:36:00.296Z,99.99
2017-12-16T02:37:00.411Z,99.99
2017-12-16T02:38:00.492Z,99.99
2017-12-16T02:39:00.467Z,99.99
2017-12-16T02:40:00.676Z,99.99
2017-12-16T02:41:00.984Z,99.99
2017-12-16T02:42:00.208Z,99.99
2017-12-16T02:43:00.333Z,99.99
2017-12-16T02:44:00.567Z,99.99
2017-12-16T02:45:01.951Z,99.99
2017-12-16T02:46:01.551Z,99.99
2017-12-16T02:47:01.152Z,99.99
2017-12-16T02:48:00.378Z,99.99
2017-12-16T02:49:00.526Z,99.99
2017-12-16T02:50:00.779Z,99.99
2017-12-16T02:51:00.834Z,99.99
2017-12-16T02:52:00.874Z,99.99
2017-12-16T02:53:00.174Z,99.99
2017-12-16T02:54:00.367Z,99.99
2017-12-16T02:55:00.434Z,99.99
2017-12-16T02:56:00.425Z,99.99
2017-12-16T02:57:00.625Z,99.99
2017-12-16T02:58:00.776Z,99.99
2017-12-16T02:59:01.221Z,99.99
2017-12-16T03:00:00.377Z,99.99
2017-12-16T03:01:00.471Z,99.99
2017-12-16T03:02:25.438Z,99.99
2017-12-16T03:03:25.675Z,99.99
2017-12-16T03:04:25.945Z,99.99
2017-12-16T03:05:26.116Z,99.99
2017-12-16T03:06:26.177Z,99.99
2017-12-16T03:07:26.361Z,99.99
2017-12-16T03:08:25.532Z,99.99
2017-12-16T03:09:25.603Z,99.99
2017-12-16T03:10:25.952Z,99.99
2017-12-16T03:11:26.002Z,99.99
2017-12-16T03:12:26.300Z,99.99
2017-12-16T03:13:25.551Z,99.99
2017-12-16T03:14:25.804Z,99.99
2017-12-16T03:15:26.065Z,99.99
2017-12-16T03:16:48.972Z,99.99
2017-12-16T03:17:49.113Z,99.99
2017-12-16T03:18:49.352Z,99.99
2017-12-16T03:19:49.870Z,99.99
2017-12-16T03:20:49.968Z,99.99
2017-12-16T03:22:11.907Z,99.99
2017-12-16T03:23:12.106Z,99.99
2017-12-16T03:24:12.286Z,99.99
2017-12-16T03:25:35.151Z,99.99
2017-12-16T03:26:35.356Z,99.99
2017-12-16T03:28:19.551Z,99.99
2017-12-16T03:29:35.570Z,99.99
2017-12-16T03:30:35.847Z,99.99
2017-12-16T03:31:35.996Z,99.99
2017-12-16T03:32:36.094Z,99.99
2017-12-16T03:33:35.982Z,99.99
2017-12-16T03:34:35.244Z,99.99
2017-12-16T03:35:35.647Z,99.99
2017-12-16T03:36:35.950Z,99.99
2017-12-16T03:37:36.085Z,99.99
2017-12-16T03:38:35.279Z,99.99
2017-12-16T03:39:35.529Z,99.99
2017-12-16T03:40:36.193Z,99.99
2017-12-16T03:41:35.319Z,99.99
2017-12-16T03:42:35.474Z,99.99
2017-12-16T03:43:35.664Z,99.99
2017-12-16T03:44:35.872Z,99.99
2017-12-16T03:45:36.209Z,99.99
2017-12-16T03:46:35.400Z,99.99
2017-12-16T03:47:58.445Z,99.99
2017-12-16T03:48:58.663Z,99.99
2017-12-16T03:49:58.797Z,99.99
2017-12-16T03:50:58.891Z,99.99
2017-12-16T03:51:59.036Z,99.99
2017-12-16T03:52:59.190Z,99.99
2017-12-16T03:53:59.255Z,99.99
2017-12-16T03:54:58.504Z,99.99
2017-12-16T03:55:58.636Z,99.99
2017-12-16T03:56:58.854Z,99.99
2017-12-16T03:57:58.913Z,99.99
2017-12-16T03:58:58.973Z,99.99
2017-12-16T03:59:59.160Z,99.99
2017-12-16T04:00:59.375Z,99.99
2017-12-16T04:01:58.393Z,99.99
2017-12-16T04:02:58.426Z,99.99
2017-12-16T04:03:58.667Z,99.99
2017-12-16T04:04:58.815Z,99.99
2017-12-16T04:05:59.011Z,99.99
2017-12-16T04:06:59.217Z,99.99
2017-12-16T04:07:59.182Z,99.99
2017-12-16T04:08:59.358Z,99.99
2017-12-16T04:09:58.600Z,99.99
2017-12-16T04:10:58.656Z,99.99
2017-12-16T04:11:58.903Z,99.99
2017-12-16T04:12:58.914Z,99.99
2017-12-16T04:13:59.692Z,99.99
2017-12-16T04:14:58.679Z,99.99
2017-12-16T04:15:58.842Z,99.99
2017-12-16T04:16:59.160Z,99.99
2017-12-16T04:17:59.317Z,99.99
2017-12-16T04:18:58.576Z,99.99
2017-12-16T04:19:58.717Z,99.99
2017-12-16T04:20:58.772Z,99.99
2017-12-16T04:21:59.013Z,99.99
2017-12-16T04:22:59.145Z,99.99
2017-12-16T04:23:58.347Z,99.99
2017-12-16T04:24:58.593Z,99.99
2017-12-16T04:25:58.875Z,99.99
2017-12-16T04:26:58.908Z,99.99
2017-12-16T04:27:59.002Z,99.99
2017-12-16T04:28:59.329Z,99.99
2017-12-16T04:29:58.618Z,99.99
2017-12-16T04:30:58.891Z,99.99
2017-12-16T04:31:59.228Z,99.99
2017-12-16T04:33:21.178Z,99.99
2017-12-16T04:34:21.445Z,99.99
2017-12-16T04:35:21.692Z,99.99
2017-12-16T04:36:21.863Z,99.99
2017-12-16T04:37:22.064Z,99.99
2017-12-16T04:38:21.301Z,99.99
2017-12-16T04:39:21.433Z,99.99
2017-12-16T04:40:21.644Z,99.99
2017-12-16T04:41:21.799Z,99.99
2017-12-16T04:42:22.366Z,99.99
2017-12-16T04:43:21.650Z,99.99
2017-12-16T04:44:22.087Z,99.99
2017-12-16T04:45:23.406Z,99.99
2017-12-16T04:46:21.563Z,99.99
2017-12-16T04:47:21.744Z,99.99
2017-12-16T04:48:22.367Z,99.99
2017-12-16T04:49:21.702Z,99.99
2017-12-16T04:50:21.962Z,99.99
2017-12-16T04:51:21.963Z,99.99
2017-12-16T04:52:21.970Z,99.99
2017-12-16T04:53:22.038Z,99.99
2017-12-16T04:54:21.252Z,99.99
2017-12-16T04:55:21.435Z,99.99
2017-12-16T04:56:21.563Z,99.99
2017-12-16T04:57:21.641Z,99.99
2017-12-16T04:58:21.875Z,99.99
2017-12-16T04:59:45.371Z,99.99
2017-12-16T05:00:45.502Z,99.99
2017-12-16T05:01:45.612Z,99.99
2017-12-16T05:02:45.692Z,99.99
2017-12-16T05:03:45.934Z,99.99
2017-12-16T05:04:46.413Z,99.99
2017-12-16T05:05:45.500Z,99.99
2017-12-16T05:06:45.711Z,99.99
2017-12-16T05:07:46.039Z,99.99
2017-12-16T05:08:46.260Z,99.99
2017-12-16T05:09:46.666Z,99.99
2017-12-16T05:10:45.912Z,99.99
2017-12-16T05:11:46.762Z,99.99
2017-12-16T05:12:45.911Z,99.99
2017-12-16T05:13:45.989Z,99.99
2017-12-16T05:14:46.124Z,99.99
2017-12-16T05:15:48.048Z,99.99
2017-12-16T05:16:46.129Z,99.99
2017-12-16T05:17:45.390Z,99.99
2017-12-16T05:18:45.490Z,99.99
2017-12-16T05:19:45.600Z,99.99
2017-12-16T05:20:45.815Z,99.99
2017-12-16T05:21:45.960Z,99.99
2017-12-16T05:22:46.066Z,99.99
2017-12-16T05:23:46.143Z,99.99
2017-12-16T05:25:09.059Z,99.99
2017-12-16T05:26:09.329Z,99.99
2017-12-16T05:27:33.327Z,99.99
2017-12-16T05:28:32.953Z,99.99
2017-12-16T05:29:33.049Z,99.99
2017-12-16T05:30:33.310Z,99.99
2017-12-16T05:31:33.964Z,99.99
2017-12-16T05:32:33.216Z,99.99
2017-12-16T05:33:33.405Z,99.99
2017-12-16T05:34:32.644Z,99.99
2017-12-16T05:35:32.836Z,99.99
2017-12-16T05:36:33.081Z,99.99
2017-12-16T05:37:33.238Z,99.99
2017-12-16T05:38:33.479Z,99.99
2017-12-16T05:39:32.592Z,99.99
2017-12-16T05:40:32.940Z,99.99
2017-12-16T05:41:34.399Z,99.99
2017-12-16T05:42:32.705Z,99.99
2017-12-16T05:43:33.102Z,99.99
2017-12-16T05:44:33.426Z,99.99
2017-12-16T05:45:32.828Z,99.99
2017-12-16T05:46:33.614Z,99.99
2017-12-16T05:47:32.707Z,99.99
2017-12-16T05:48:33.236Z,99.99
2017-12-16T05:49:33.356Z,99.99
2017-12-16T05:50:32.665Z,99.99
2017-12-16T05:51:34.061Z,99.99
2017-12-16T05:52:33.317Z,99.99
2017-12-16T05:53:33.535Z,99.99
2017-12-16T05:54:34.771Z,99.99
2017-12-16T05:55:33.056Z,99.99
2017-12-16T05:56:33.157Z,99.99
2017-12-16T05:57:33.496Z,99.99
2017-12-16T05:58:32.649Z,99.99
2017-12-16T05:59:32.823Z,99.99
2017-12-16T06:00:34.081Z,99.99
2017-12-16T06:01:33.240Z,99.99
2017-12-16T06:02:32.552Z,99.99
2017-12-16T06:03:32.870Z,99.99
2017-12-16T06:04:32.964Z,99.99
2017-12-16T06:05:58.066Z,99.99
2017-12-16T06:06:58.406Z,99.99
2017-12-16T06:07:59.828Z,99.99
2017-12-16T06:08:59.028Z,99.99
2017-12-16T06:09:58.370Z,99.99
2017-12-16T06:10:59.564Z,99.99
2017-12-16T06:11:58.772Z,99.99
2017-12-16T06:12:59.085Z,99.99
2017-12-16T06:13:58.417Z,99.99
2017-12-16T06:14:59.128Z,99.99
2017-12-16T06:15:58.428Z,99.99
2017-12-16T06:16:58.652Z,99.99
2017-12-16T06:18:21.543Z,99.99
2017-12-16T06:19:21.720Z,99.99
2017-12-16T06:20:47.520Z,99.99
2017-12-16T06:21:46.874Z,99.99
2017-12-16T06:22:47.051Z,99.99
2017-12-16T06:23:47.086Z,99.99
2017-12-16T06:24:47.135Z,99.99
2017-12-16T06:25:47.174Z,99.99
2017-12-16T06:26:46.394Z,99.99
2017-12-16T06:27:46.520Z,99.99
2017-12-16T06:28:46.702Z,99.99
2017-12-16T06:29:46.867Z,99.99
2017-12-16T06:30:47.165Z,99.99
2017-12-16T06:31:46.622Z,99.99
2017-12-16T06:32:46.808Z,99.99
2017-12-16T06:34:09.913Z,99.99
2017-12-16T06:35:10.110Z,99.99
2017-12-16T06:36:10.753Z,99.99
2017-12-16T06:37:29.429Z,99.99
2017-12-16T06:38:29.699Z,99.99
2017-12-16T06:39:29.997Z,99.99
2017-12-16T06:40:30.090Z,99.99
2017-12-16T06:41:30.300Z,99.99
2017-12-16T06:42:29.731Z,99.99
2017-12-16T06:43:30.029Z,99.99
2017-12-16T06:44:30.193Z,99.99
2017-12-16T06:45:30.386Z,99.99
2017-12-16T06:46:29.529Z,99.99
2017-12-16T06:47:29.754Z,99.99
2017-12-16T06:48:30.116Z,99.99
2017-12-16T06:49:30.220Z,99.99
2017-12-16T06:50:29.570Z,99.99
2017-12-16T06:51:30.307Z,99.99
2017-12-16T06:52:29.575Z,99.99
2017-12-16T06:53:29.851Z,99.99
2017-12-16T06:54:30.054Z,99.99
2017-12-16T06:55:30.216Z,99.99
2017-12-16T06:56:30.420Z,99.99
2017-12-16T06:57:29.720Z,99.99
2017-12-16T06:58:29.877Z,99.99
2017-12-16T06:59:30.015Z,99.99
2017-12-16T07:00:30.061Z,99.99
2017-12-16T07:01:30.159Z,99.99
2017-12-16T07:02:29.557Z,99.99
2017-12-16T07:03:29.769Z,99.99
2017-12-16T07:04:29.872Z,99.99
2017-12-16T07:05:30.043Z,99.99
2017-12-16T07:06:30.280Z,99.99
2017-12-16T07:07:29.616Z,99.99
2017-12-16T07:08:29.980Z,99.99
2017-12-16T07:09:30.177Z,99.99
2017-12-16T07:10:29.451Z,99.99
2017-12-16T07:11:29.848Z,99.99
2017-12-16T07:12:30.668Z,99.99
2017-12-16T07:13:29.988Z,99.99
2017-12-16T07:14:29.474Z,99.99
2017-12-16T07:15:29.602Z,99.99
2017-12-16T07:16:29.922Z,99.99
2017-12-16T07:17:30.304Z,99.99
2017-12-16T07:18:29.722Z,99.99
2017-12-16T07:19:53.032Z,99.99
2017-12-16T07:20:53.398Z,99.99
2017-12-16T07:21:53.571Z,99.99
2017-12-16T07:22:53.951Z,99.99
2017-12-16T07:23:53.320Z,99.99
2017-12-16T07:24:53.659Z,99.99
2017-12-16T07:25:53.142Z,99.99
2017-12-16T07:26:53.606Z,99.99
2017-12-16T07:27:54.036Z,99.99
2017-12-16T07:28:53.425Z,99.99
2017-12-16T07:29:53.665Z,99.99
2017-12-16T07:30:53.955Z,99.99
2017-12-16T07:31:53.082Z,99.99
2017-12-16T07:32:53.493Z,99.99
2017-12-16T07:33:53.625Z,99.99
2017-12-16T07:34:53.930Z,99.99
2017-12-16T07:35:53.198Z,99.99
2017-12-16T07:36:53.486Z,99.99
2017-12-16T07:37:53.729Z,99.99
2017-12-16T07:38:54.438Z,99.99
2017-12-16T07:39:53.905Z,99.99
2017-12-16T07:40:54.307Z,99.99
2017-12-16T07:41:53.685Z,99.99
2017-12-16T07:42:53.948Z,99.99
2017-12-16T07:43:53.255Z,99.99
2017-12-16T07:44:53.620Z,99.99
2017-12-16T07:45:54.898Z,99.99
2017-12-16T07:47:16.239Z,99.99
2017-12-16T07:48:39.440Z,99.99
2017-12-16T07:49:39.707Z,99.99
2017-12-16T07:50:40.530Z,99.99
2017-12-16T07:51:39.779Z,99.99
2017-12-16T07:52:40.288Z,99.99
2017-12-16T07:53:39.655Z,99.99
2017-12-16T07:54:40.075Z,99.99
2017-12-16T07:55:40.031Z,99.99
2017-12-16T07:56:40.454Z,99.99
2017-12-16T07:57:41.015Z,99.99
2017-12-16T07:58:40.786Z,99.99
2017-12-16T07:59:40.457Z,99.99
2017-12-16T08:00:40.410Z,99.99
2017-12-16T08:01:41.335Z,99.99
2017-12-16T08:02:39.867Z,99.99
2017-12-16T08:03:40.425Z,99.99
2017-12-16T08:04:40.006Z,99.99
2017-12-16T08:05:41.095Z,99.99
2017-12-16T08:06:40.609Z,99.99
2017-12-16T08:07:40.940Z,99.99
2017-12-16T08:08:40.431Z,99.99
2017-12-16T08:09:40.858Z,99.99
2017-12-16T08:10:40.439Z,99.99
2017-12-16T08:11:40.084Z,99.99
2017-12-16T08:12:39.880Z,99.99
2017-12-16T08:14:03.155Z,99.99
2017-12-16T08:15:03.540Z,99.99
2017-12-16T08:16:03.886Z,99.99
2017-12-16T08:17:03.243Z,99.99
2017-12-16T08:18:03.734Z,99.99
2017-12-16T08:19:04.157Z,99.99
2017-12-16T08:20:03.710Z,99.99
2017-12-16T08:21:04.063Z,99.99
2017-12-16T08:22:03.616Z,99.99
2017-12-16T08:23:04.154Z,99.99
2017-12-16T08:24:03.883Z,99.99
2017-12-16T08:25:04.593Z,99.99
2017-12-16T08:26:04.297Z,99.99
2017-12-16T08:27:04.093Z,99.99
2017-12-16T08:28:03.606Z,99.99
2017-12-16T08:29:04.433Z,99.99
2017-12-16T08:30:04.680Z,99.99
2017-12-16T08:31:04.777Z,99.99
2017-12-16T08:32:03.418Z,99.99
2017-12-16T08:33:04.135Z,99.99
2017-12-16T08:34:03.563Z,99.99
2017-12-16T08:35:30.080Z,99.99
2017-12-16T08:36:29.665Z,99.99
2017-12-16T08:37:28.011Z,99.99
2017-12-16T08:38:30.603Z,99.99
2017-12-16T08:39:51.254Z,99.99
2017-12-16T08:40:51.578Z,99.99
2017-12-16T08:41:51.933Z,99.99
2017-12-16T08:42:51.253Z,99.99
2017-12-16T08:43:51.766Z,99.99
2017-12-16T08:44:52.175Z,99.99
2017-12-16T08:45:51.585Z,99.99
2017-12-16T08:47:15.593Z,99.99
2017-12-16T08:48:16.033Z,99.99
2017-12-16T08:49:16.896Z,99.99
2017-12-16T08:50:16.234Z,99.99
2017-12-16T08:51:16.469Z,99.99
2017-12-16T08:52:39.235Z,99.99
2017-12-16T08:53:39.556Z,99.99
2017-12-16T08:54:40.314Z,99.99
2017-12-16T08:55:40.895Z,99.99
2017-12-16T08:56:40.437Z,99.99
2017-12-16T08:57:39.993Z,99.99
2017-12-16T08:58:39.483Z,99.99
2017-12-16T08:59:40.270Z,99.99
2017-12-16T09:00:39.707Z,99.99
2017-12-16T09:01:42.505Z,99.99
2017-12-16T09:02:39.795Z,99.99
2017-12-16T09:03:41.544Z,99.99
2017-12-16T09:04:41.784Z,99.99
2017-12-16T09:05:40.111Z,99.99
2017-12-16T09:06:39.390Z,99.99
2017-12-16T09:07:39.745Z,99.99
2017-12-16T09:08:40.123Z,99.99
2017-12-16T09:09:39.503Z,99.99
2017-12-16T09:10:39.805Z,99.99
2017-12-16T09:12:03.012Z,99.99
2017-12-16T09:13:03.362Z,99.99
2017-12-16T09:14:03.718Z,99.99
2017-12-16T09:15:05.763Z,99.99
2017-12-16T09:16:03.050Z,99.99
2017-12-16T09:17:03.381Z,99.99
2017-12-16T09:18:03.778Z,99.99
2017-12-16T09:19:03.222Z,99.99
2017-12-16T09:20:03.578Z,99.99
2017-12-16T09:21:03.867Z,99.99
2017-12-16T09:22:03.186Z,99.99
2017-12-16T09:23:03.689Z,99.99
2017-12-16T09:24:03.971Z,99.99
2017-12-16T09:25:03.181Z,99.99
2017-12-16T09:26:03.522Z,99.99
2017-12-16T09:27:03.035Z,99.99
2017-12-16T09:28:03.443Z,99.99
2017-12-16T09:29:03.981Z,99.99
2017-12-16T09:30:03.438Z,99.99
2017-12-16T09:31:03.814Z,99.99
2017-12-16T09:32:03.165Z,99.99
2017-12-16T09:33:03.335Z,99.99
2017-12-16T09:34:03.666Z,99.99
2017-12-16T09:35:03.087Z,99.99
2017-12-16T09:36:03.618Z,99.99
2017-12-16T09:37:04.301Z,99.99
2017-12-16T09:38:03.636Z,99.99
2017-12-16T09:39:03.680Z,99.99
2017-12-16T09:40:03.163Z,99.99
2017-12-16T09:41:03.573Z,99.99
2017-12-16T09:42:03.796Z,99.99
2017-12-16T09:43:02.983Z,99.99
2017-12-16T09:44:03.263Z,99.99
2017-12-16T09:45:03.667Z,99.99
2017-12-16T09:46:03.136Z,99.99
2017-12-16T09:47:03.463Z,99.99
2017-12-16T09:48:04.517Z,99.99
2017-12-16T09:49:03.865Z,99.99
2017-12-16T09:50:03.305Z,99.99
2017-12-16T09:51:04.375Z,99.99
2017-12-16T09:52:04.317Z,99.99
2017-12-16T09:53:04.360Z,99.99
2017-12-16T09:54:03.885Z,99.99
2017-12-16T09:55:03.857Z,99.99
2017-12-16T09:56:03.261Z,99.99
2017-12-16T09:57:03.571Z,99.99
2017-12-16T09:58:03.753Z,99.99
2017-12-16T09:59:02.947Z,99.99
2017-12-16T10:00:03.329Z,99.99
2017-12-16T10:01:07.045Z,99.99
2017-12-16T10:02:04.041Z,99.99
2017-12-16T10:03:03.955Z,99.99
2017-12-16T10:04:04.462Z,99.99
2017-12-16T10:05:06.094Z,99.99
2017-12-16T10:06:03.961Z,99.99
2017-12-16T10:07:05.657Z,99.99
2017-12-16T10:08:04.794Z,99.99
2017-12-16T10:09:02.989Z,99.99
2017-12-16T10:10:04.408Z,99.99
2017-12-16T10:11:03.638Z,99.99
2017-12-16T10:12:02.928Z,99.99
2017-12-16T10:13:04.267Z,99.99
2017-12-16T10:14:04.504Z,99.99
2017-12-16T10:15:03.392Z,99.99
2017-12-16T10:16:04.143Z,99.99
2017-12-16T10:17:27.348Z,99.99
2017-12-16T10:18:28.526Z,99.99
2017-12-16T10:19:27.925Z,99.99
2017-12-16T10:20:28.026Z,99.99
2017-12-16T10:21:28.670Z,99.99
2017-12-16T10:22:27.523Z,99.99
2017-12-16T10:23:29.730Z,99.99
2017-12-16T10:24:27.488Z,99.99
2017-12-16T10:25:29.325Z,99.99
2017-12-16T10:26:27.956Z,99.99
2017-12-16T10:27:32.248Z,99.99
2017-12-16T10:28:27.535Z,99.99
2017-12-16T10:29:50.170Z,99.99
2017-12-16T10:30:50.500Z,99.99
2017-12-16T10:31:50.978Z,99.99
2017-12-16T10:32:50.447Z,99.99
2017-12-16T10:33:50.679Z,99.99
2017-12-16T10:34:51.390Z,99.99
2017-12-16T10:35:50.671Z,99.99
2017-12-16T10:36:51.567Z,99.99
2017-12-16T10:37:50.742Z,99.99
2017-12-16T10:38:50.274Z,99.99
2017-12-16T10:39:51.007Z,99.99
2017-12-16T10:40:51.375Z,99.99
2017-12-16T10:41:50.688Z,99.99
2017-12-16T10:42:53.376Z,99.99
2017-12-16T10:43:52.178Z,99.99
2017-12-16T10:45:14.748Z,99.99
2017-12-16T10:46:16.476Z,99.99
2017-12-16T10:47:14.990Z,99.99
2017-12-16T10:48:15.374Z,99.99
2017-12-16T10:49:14.722Z,99.99
2017-12-16T10:50:15.542Z,99.99
2017-12-16T10:51:14.950Z,99.99
2017-12-16T10:52:18.529Z,99.99
2017-12-16T10:53:14.737Z,99.99
2017-12-16T10:54:15.173Z,99.30
2017-12-16T10:55:14.826Z,98.31
2017-12-16T10:56:15.197Z,99.99
2017-12-16T10:57:14.571Z,99.99
2017-12-16T10:58:14.824Z,99.99
2017-12-16T10:59:15.180Z,99.99
2017-12-16T11:00:14.801Z,99.99
2017-12-16T11:01:16.270Z,99.99
2017-12-16T11:02:15.234Z,99.99
2017-12-16T11:03:14.470Z,99.99
2017-12-16T11:04:14.691Z,99.99
2017-12-16T11:05:15.328Z,99.99
2017-12-16T11:06:15.118Z,99.99
2017-12-16T11:07:15.052Z,98.59
2017-12-16T11:08:15.238Z,98.59
2017-12-16T11:09:14.618Z,99.87
2017-12-16T11:10:15.326Z,99.99
2017-12-16T11:11:14.827Z,99.99
2017-12-16T11:12:15.267Z,99.99
2017-12-16T11:13:14.662Z,99.99
2017-12-16T11:14:16.725Z,99.99
2017-12-16T11:15:15.628Z,99.99
2017-12-16T11:16:14.872Z,99.99
2017-12-16T11:17:15.065Z,99.99
2017-12-16T11:18:14.378Z,99.99
2017-12-16T11:19:14.664Z,99.99
2017-12-16T11:20:39.155Z,99.99
2017-12-16T11:21:39.462Z,99.99
2017-12-16T11:22:39.915Z,99.99
2017-12-16T11:23:39.179Z,99.99
2017-12-16T11:24:39.442Z,99.99
2017-12-16T11:25:40.022Z,99.99
2017-12-16T11:26:39.297Z,99.99
2017-12-16T11:27:39.630Z,99.99
2017-12-16T11:28:39.048Z,99.99
2017-12-16T11:29:39.366Z,99.99
2017-12-16T11:30:40.810Z,99.99
2017-12-16T11:31:39.252Z,99.99
2017-12-16T11:32:39.599Z,99.99
2017-12-16T11:33:38.857Z,99.99
2017-12-16T11:34:39.047Z,99.99
2017-12-16T11:35:40.027Z,99.99
2017-12-16T11:36:39.259Z,99.99
2017-12-16T11:37:39.709Z,99.99
2017-12-16T11:38:39.146Z,99.99
2017-12-16T11:39:39.574Z,99.99
2017-12-16T11:40:38.958Z,99.99
2017-12-16T11:41:39.676Z,99.99
2017-12-16T11:42:38.979Z,99.99
2017-12-16T11:43:39.296Z,99.99
2017-12-16T11:44:39.675Z,99.99
2017-12-16T11:45:39.151Z,99.99
2017-12-16T11:46:40.791Z,99.99
2017-12-16T11:47:39.151Z,99.99
2017-12-16T11:48:39.456Z,99.99
2017-12-16T11:49:39.457Z,99.99
2017-12-16T11:50:39.324Z,99.99
2017-12-16T11:51:40.682Z,99.99
2017-12-16T11:52:39.072Z,99.99
2017-12-16T11:53:39.364Z,99.99
2017-12-16T11:54:38.776Z,99.99
2017-12-16T11:55:39.107Z,99.99
2017-12-16T11:56:39.475Z,99.99
2017-12-16T11:57:39.402Z,99.99
2017-12-16T11:58:38.927Z,99.99
2017-12-16T11:59:39.356Z,99.99
2017-12-16T12:00:39.599Z,99.99
2017-12-16T12:01:38.977Z,99.99
2017-12-16T12:02:39.822Z,99.99
2017-12-16T12:03:39.135Z,99.99
2017-12-16T12:04:39.561Z,99.99
2017-12-16T12:05:38.935Z,99.99
2017-12-16T12:06:40.376Z,99.99
2017-12-16T12:07:38.876Z,99.99
2017-12-16T12:08:41.746Z,99.99
2017-12-16T12:09:38.967Z,99.99
2017-12-16T12:10:39.175Z,99.99
2017-12-16T12:11:39.448Z,99.99
2017-12-16T12:12:38.848Z,99.99
2017-12-16T12:13:40.678Z,99.99
2017-12-16T12:14:39.488Z,99.99
2017-12-16T12:15:38.709Z,99.99
2017-12-16T12:16:39.099Z,99.99
2017-12-16T12:17:39.369Z,99.99
2017-12-16T12:18:39.533Z,99.99
2017-12-16T12:19:39.137Z,99.99
2017-12-16T12:20:39.509Z,99.99
2017-12-16T12:21:39.932Z,99.99
2017-12-16T12:22:39.257Z,99.99
2017-12-16T12:23:39.508Z,99.99
2017-12-16T12:24:39.089Z,99.99
2017-12-16T12:25:39.289Z,99.99
2017-12-16T12:26:39.609Z,99.99
2017-12-16T12:28:01.908Z,99.99
2017-12-16T12:29:02.165Z,99.99
2017-12-16T12:30:02.934Z,99.99
2017-12-16T12:31:02.153Z,99.99
2017-12-16T12:32:26.123Z,99.99
2017-12-16T12:33:26.351Z,99.99
2017-12-16T12:34:26.591Z,99.99
2017-12-16T12:35:27.261Z,99.99
2017-12-16T12:36:26.555Z,99.99
2017-12-16T12:37:26.693Z,99.99
2017-12-16T12:38:28.310Z,99.99
2017-12-16T12:39:27.101Z,99.99
2017-12-16T12:40:27.702Z,99.99
2017-12-16T12:41:27.518Z,99.99
2017-12-16T12:42:26.751Z,99.99
2017-12-16T12:43:27.014Z,99.99
2017-12-16T12:44:26.486Z,99.99
2017-12-16T12:45:27.317Z,99.99
2017-12-16T12:46:26.605Z,99.99
2017-12-16T12:47:26.264Z,99.99
2017-12-16T12:48:26.714Z,99.99
2017-12-16T12:49:26.330Z,99.99
2017-12-16T12:50:27.121Z,99.99
2017-12-16T12:51:26.246Z,99.99
2017-12-16T12:52:49.872Z,99.07
2017-12-16T12:53:50.766Z,98.12
2017-12-16T12:54:50.846Z,97.83
2017-12-16T12:55:50.447Z,98.02
2017-12-16T12:56:51.487Z,98.02
2017-12-16T12:57:50.852Z,97.78
2017-12-16T12:58:50.226Z,97.78
2017-12-16T12:59:50.635Z,98.54
2017-12-16T13:01:13.662Z,99.44
2017-12-16T13:02:14.542Z,99.99
2017-12-16T13:03:13.966Z,99.99
2017-12-16T13:04:14.376Z,99.99
2017-12-16T13:05:13.750Z,99.99
2017-12-16T13:06:14.490Z,99.99
2017-12-16T13:07:14.606Z,99.99